Time;durP1;ratioP1;P1;durP2;ratioP2;P2;SDS_P1;SDS_P2;PMS_P1;PMS_P2;Temp;Humidity;BMP_temperature;BMP_pressure;BME280_temperature;BME280_humidity;BME280_pressure;Samples;Min_cycle;Max_cycle;Signal;HPM_P1;HPM_P2
2022/11/04 00:01:21;;;;;;;0.60;0.60;;;11.10;99.90;;;;;;5075838;28;20482;-80
2022/11/04 00:03:47;;;;;;;0.28;0.28;;;11.10;99.90;;;;;;5087107;28;20109;-81
2022/11/04 00:06:13;;;;;;;0.90;0.60;;;11.00;99.90;;;;;;5074996;28;20041;-81
2022/11/04 00:08:38;;;;;;;1.27;1.15;;;11.10;99.90;;;;;;5066901;28;20052;-81
2022/11/04 00:13:48;;;;;;;0.98;0.75;;;11.00;99.90;;;;;;5069086;28;20132;-81
2022/11/04 00:19:00;;;;;;;0.50;0.50;;;11.00;99.90;;;;;;5068961;28;20048;-79
2022/11/04 00:29:41;;;;;;;0.47;0.43;;;11.00;99.90;;;;;;5068035;28;20131;-80
2022/11/04 00:34:51;;;;;;;0.35;0.35;;;10.90;99.90;;;;;;5068170;28;20052;-79
2022/11/04 00:37:17;;;;;;;0.40;0.35;;;11.00;99.90;;;;;;5067745;28;20045;-81
2022/11/04 00:39:42;;;;;;;0.10;0.10;;;10.90;99.90;;;;;;5068225;28;20055;-81
2022/11/04 00:42:08;;;;;;;0.57;0.52;;;10.90;99.90;;;;;;5067631;28;20052;-79
2022/11/04 00:44:34;;;;;;;0.55;0.52;;;10.90;99.90;;;;;;5068443;28;20537;-80
2022/11/04 00:46:59;;;;;;;0.43;0.20;;;10.80;99.90;;;;;;5067768;28;20105;-81
2022/11/04 00:49:25;;;;;;;0.10;0.10;;;10.70;99.90;;;;;;5067800;28;20044;-81
2022/11/04 00:51:51;;;;;;;0.10;0.10;;;10.70;99.90;;;;;;5068859;28;20041;-78
2022/11/04 00:54:16;;;;;;;0.45;0.20;;;10.70;99.90;;;;;;5068337;28;20511;-79
2022/11/04 00:56:42;;;;;;;0.10;0.10;;;10.60;99.90;;;;;;5068522;28;20040;-80
2022/11/04 00:59:09;;;;;;;0.00;0.00;;;10.50;99.90;;;;;;5067668;28;20325;-80
2022/11/04 01:01:35;;;;;;;0.10;0.10;;;10.40;99.90;;;;;;5067582;28;20045;-78
2022/11/04 01:04:00;;;;;;;0.38;0.30;;;10.40;99.90;;;;;;5067364;28;20056;-80
2022/11/04 01:06:26;;;;;;;0.00;0.00;;;10.30;99.90;;;;;;5066862;28;20052;-78
2022/11/04 01:08:57;;;;;;;0.10;0.10;;;10.30;99.90;;;;;;5067489;28;20555;-78
2022/11/04 01:11:23;;;;;;;0.00;0.00;;;10.30;99.90;;;;;;5067518;28;20052;-79
2022/11/04 01:13:50;;;;;;;0.22;0.22;;;10.30;99.90;;;;;;5067207;28;20052;-80
2022/11/04 01:16:16;;;;;;;0.43;0.35;;;10.30;99.90;;;;;;5067578;28;20044;-79
2022/11/04 01:18:42;;;;;;;0.00;0.00;;;10.30;99.90;;;;;;5067643;28;20049;-78
2022/11/04 01:21:10;;;;;;;0.00;0.00;;;10.20;99.90;;;;;;5066332;28;20064;-79
2022/11/04 01:23:36;;;;;;;0.10;0.10;;;10.20;99.90;;;;;;5067095;28;20138;-79
2022/11/04 01:26:13;;;;;;;0.15;0.10;;;10.30;99.90;;;;;;5066919;28;20115;-80
2022/11/04 01:28:38;;;;;;;0.00;0.00;;;10.20;99.90;;;;;;5066970;28;20059;-80
2022/11/04 01:31:10;;;;;;;0.00;0.00;;;10.20;99.90;;;;;;5067106;28;20442;-80
2022/11/04 01:33:36;;;;;;;0.13;0.10;;;10.20;99.90;;;;;;5066685;28;20133;-79
2022/11/04 01:36:03;;;;;;;0.00;0.00;;;10.10;99.90;;;;;;5067308;28;20040;-79
2022/11/04 01:38:29;;;;;;;0.52;0.35;;;10.20;99.90;;;;;;5067631;28;20050;-79
2022/11/04 01:40:55;;;;;;;0.00;0.00;;;10.20;99.90;;;;;;5066708;28;20103;-81
2022/11/04 01:43:22;;;;;;;0.00;0.00;;;10.20;99.90;;;;;;5067360;28;20045;-79
2022/11/04 01:45:56;;;;;;;0.00;0.00;;;10.20;99.90;;;;;;5067426;28;20128;-79
2022/11/04 01:48:26;;;;;;;0.00;0.00;;;10.20;99.90;;;;;;5066979;28;20750;-80
2022/11/04 01:50:53;;;;;;;0.00;0.00;;;10.20;99.90;;;;;;5067020;28;20052;-79
2022/11/04 01:53:38;;;;;;;0.00;0.00;;;10.20;99.90;;;;;;5066870;28;20041;-80
2022/11/04 01:56:10;;;;;;;0.08;0.08;;;10.20;99.90;;;;;;5067050;28;20044;-80
2022/11/04 01:58:51;;;;;;;0.00;0.00;;;10.20;99.90;;;;;;5066891;28;20145;-80
2022/11/04 02:01:18;;;;;;;0.00;0.00;;;10.10;99.90;;;;;;5066938;28;20044;-80
2022/11/04 02:03:51;;;;;;;0.00;0.00;;;10.00;99.90;;;;;;5066283;28;20044;-80
2022/11/04 02:06:19;;;;;;;0.00;0.00;;;10.00;99.90;;;;;;5065481;28;20037;-79
2022/11/04 02:08:47;;;;;;;0.00;0.00;;;10.00;99.90;;;;;;5066115;28;20155;-80
2022/11/04 02:12:48;;;;;;;3.10;0.52;;;10.00;99.90;;;;;;5065712;28;20040;-80
2022/11/04 02:13:59;;;;;;;0.00;0.00;;;10.00;99.90;;;;;;5066275;28;20052;-80
2022/11/04 02:16:43;;;;;;;0.00;0.00;;;9.90;99.90;;;;;;5065887;28;20052;-79
2022/11/04 02:19:46;;;;;;;0.35;0.35;;;9.90;99.90;;;;;;5066387;28;20055;-79
2022/11/04 02:22:24;;;;;;;0.00;0.00;;;9.90;99.90;;;;;;5066210;28;20156;-80
2022/11/04 02:25:04;;;;;;;0.13;0.10;;;9.90;99.90;;;;;;5066175;28;20896;-79
2022/11/04 02:27:36;;;;;;;0.00;0.00;;;9.90;99.90;;;;;;5065643;28;20058;-79
2022/11/04 02:30:18;;;;;;;0.00;0.00;;;9.90;99.90;;;;;;5066324;28;20052;-78
2022/11/04 02:32:52;;;;;;;0.00;0.00;;;9.80;99.90;;;;;;5075333;28;20493;-80
2022/11/04 02:35:29;;;;;;;0.00;0.00;;;9.80;99.90;;;;;;5078203;28;20072;-79
2022/11/04 02:38:24;;;;;;;0.00;0.00;;;9.90;99.90;;;;;;5046838;28;20056;-78
2022/11/04 02:41:23;;;;;;;0.00;0.00;;;9.80;99.90;;;;;;5052518;28;20067;-80
2022/11/04 02:44:04;;;;;;;0.05;0.05;;;9.80;99.90;;;;;;5066339;28;20121;-78
2022/11/04 02:46:45;;;;;;;0.00;0.00;;;9.80;99.90;;;;;;5065275;28;20085;-80
2022/11/04 02:49:18;;;;;;;0.00;0.00;;;9.90;99.90;;;;;;5065794;28;20044;-79
2022/11/04 02:52:16;;;;;;;0.00;0.00;;;9.90;99.90;;;;;;5066708;28;20059;-79
2022/11/04 02:55:05;;;;;;;0.00;0.00;;;9.90;99.90;;;;;;5062305;28;20063;-79
2022/11/04 02:57:34;;;;;;;0.00;0.00;;;10.00;99.90;;;;;;5065645;28;20052;-77
2022/11/04 03:00:06;;;;;;;0.00;0.00;;;10.00;99.90;;;;;;5110407;22;20049;-76
2022/11/04 03:02:45;;;;;;;0.65;0.35;;;10.00;99.90;;;;;;5060791;28;20101;-76
2022/11/04 03:05:21;;;;;;;0.35;0.35;;;9.90;99.90;;;;;;5066415;28;20514;-75
2022/11/04 03:07:49;;;;;;;0.00;0.00;;;9.90;99.90;;;;;;5050448;28;20116;-75
2022/11/04 03:10:24;;;;;;;0.00;0.00;;;9.90;99.90;;;;;;5058201;28;20068;-77
2022/11/04 03:13:04;;;;;;;0.55;0.10;;;10.00;99.90;;;;;;5050389;28;20059;-77
2022/11/04 03:15:33;;;;;;;0.00;0.00;;;10.00;99.90;;;;;;5029805;28;20537;-76
2022/11/04 03:18:18;;;;;;;0.00;0.00;;;10.10;99.90;;;;;;5067882;28;20098;-76
2022/11/04 03:20:47;;;;;;;0.00;0.00;;;10.00;99.90;;;;;;5050639;28;20045;-78
2022/11/04 03:23:13;;;;;;;0.10;0.10;;;10.10;99.90;;;;;;5048299;28;20056;-76
2022/11/04 03:25:49;;;;;;;0.00;0.00;;;10.10;99.90;;;;;;5032280;28;20041;-77
2022/11/04 03:28:17;;;;;;;0.00;0.00;;;10.10;99.90;;;;;;5052933;28;20076;-76
2022/11/04 03:30:46;;;;;;;0.00;0.00;;;10.10;99.90;;;;;;5032121;28;20517;-78
2022/11/04 03:33:24;;;;;;;0.00;0.00;;;10.10;99.90;;;;;;5051646;28;20068;-77
2022/11/04 03:35:51;;;;;;;0.00;0.00;;;10.10;99.90;;;;;;5070099;28;20049;-78
2022/11/04 03:38:16;;;;;;;1.75;0.65;;;10.10;99.90;;;;;;5070888;28;20063;-75
2022/11/04 03:40:42;;;;;;;0.00;0.00;;;10.10;99.90;;;;;;5051438;28;20041;-76
2022/11/04 03:43:13;;;;;;;0.00;0.00;;;10.00;99.90;;;;;;5052397;28;20052;-77
2022/11/04 03:45:40;;;;;;;0.00;0.00;;;10.00;99.90;;;;;;5054815;28;20128;-77
2022/11/04 03:48:07;;;;;;;0.00;0.00;;;10.00;99.90;;;;;;5055826;28;20084;-76
2022/11/04 03:50:43;;;;;;;0.00;0.00;;;10.00;99.90;;;;;;5055920;28;20053;-76
2022/11/04 03:53:11;;;;;;;0.50;0.35;;;10.00;99.90;;;;;;5056483;28;20096;-77
2022/11/04 03:55:55;;;;;;;0.00;0.00;;;10.00;99.90;;;;;;5040222;28;20131;-75
2022/11/04 03:58:41;;;;;;;0.00;0.00;;;10.00;99.90;;;;;;5054839;28;20056;-76
2022/11/04 04:01:26;;;;;;;0.00;0.00;;;10.00;99.90;;;;;;5015777;28;20053;-76
2022/11/04 04:04:05;;;;;;;0.00;0.00;;;9.90;99.90;;;;;;5016762;28;20042;-78
2022/11/04 04:06:35;;;;;;;0.00;0.00;;;9.90;99.90;;;;;;5018497;28;20056;-76
2022/11/04 04:09:34;;;;;;;0.00;0.00;;;10.30;99.90;;;;;;5038295;28;20033;-77
2022/11/04 04:12:16;;;;;;;0.00;0.00;;;9.90;99.90;;;;;;5038851;28;20481;-76
2022/11/04 04:14:48;;;;;;;3.83;0.47;;;9.90;99.90;;;;;;5038805;28;20410;-75
2022/11/04 04:17:33;;;;;;;0.00;0.00;;;9.90;99.90;;;;;;5037911;28;20411;-77
2022/11/04 04:20:06;;;;;;;0.05;0.05;;;9.90;99.90;;;;;;5037471;28;20060;-77
2022/11/04 04:22:58;;;;;;;0.30;0.30;;;9.90;99.90;;;;;;5039015;28;20053;-76
2022/11/04 04:28:15;;;;;;;0.00;0.00;;;9.90;99.90;;;;;;5039771;28;20060;-77
2022/11/04 04:30:42;;;;;;;0.00;0.00;;;9.90;99.90;;;;;;5038543;28;20503;-76
2022/11/04 04:33:12;;;;;;;0.17;0.17;;;9.90;99.90;;;;;;5033410;28;20049;-76
2022/11/04 04:35:55;;;;;;;0.00;0.00;;;9.90;99.90;;;;;;5032724;28;20064;-76
2022/11/04 04:47:20;;;;;;;0.00;0.00;;;9.90;99.90;;;;;;5031149;28;20046;-76
2022/11/04 04:49:57;;;;;;;0.22;0.22;;;9.90;99.90;;;;;;5034051;28;20652;-75
2022/11/04 04:52:25;;;;;;;0.00;0.00;;;9.90;99.90;;;;;;5032721;28;20144;-78
2022/11/04 04:54:51;;;;;;;0.00;0.00;;;9.80;99.90;;;;;;5028958;28;20601;-76
2022/11/04 04:57:17;;;;;;;0.00;0.00;;;9.80;99.90;;;;;;5030645;28;20049;-77
2022/11/04 04:59:42;;;;;;;0.00;0.00;;;9.80;99.90;;;;;;5029187;28;20057;-77
2022/11/04 05:02:08;;;;;;;0.00;0.00;;;9.70;99.90;;;;;;5031043;28;20045;-78
2022/11/04 05:04:34;;;;;;;0.00;0.00;;;9.60;99.90;;;;;;5013722;28;20049;-77
2022/11/04 05:06:59;;;;;;;0.00;0.00;;;9.60;99.90;;;;;;5030397;28;20176;-78
2022/11/04 05:09:25;;;;;;;0.00;0.00;;;9.50;99.90;;;;;;5028529;28;20041;-76
2022/11/04 05:11:51;;;;;;;0.10;0.10;;;9.60;99.90;;;;;;5029298;28;20095;-75
2022/11/04 05:14:16;;;;;;;0.00;0.00;;;9.50;99.90;;;;;;5028469;28;21002;-78
2022/11/04 05:16:47;;;;;;;0.00;0.00;;;9.50;99.90;;;;;;5161809;22;20036;-92
2022/11/04 05:19:52;;;;;;;;;;;;;;;;;;;;;
2022/11/04 05:26:14;;;;;;;0.00;0.00;;;9.50;99.90;;;;;;5079387;28;20039;-92
2022/11/04 05:29:32;;;;;;;0.17;0.08;;;9.10;99.90;;;;;;5078146;28;20025;-92
2022/11/04 05:32:05;;;;;;;0.00;0.00;;;8.90;99.90;;;;;;5051025;28;20063;-92
2022/11/04 05:38:39;;;;;;;0.00;0.00;;;10.00;99.90;;;;;;5070821;28;20040;-92
2022/11/04 05:48:28;;;;;;;0.00;0.00;;;9.90;99.90;;;;;;5062067;28;20025;-93
2022/11/04 05:51:59;;;;;;;;;;;;;;;;;;;;;
2022/11/04 05:54:50;;;;;;;;;;;;;;;;;;;;;
2022/11/04 05:57:49;;;;;;;0.30;0.13;;;8.80;99.90;;;;;;5076805;28;20066;-92
2022/11/04 06:00:48;;;;;;;;;;;;;;;;;;;;;
2022/11/04 06:07:10;;;;;;;0.00;0.00;;;9.50;99.90;;;;;;5041800;28;20060;-93
2022/11/04 06:10:23;;;;;;;0.00;0.00;;;8.60;99.90;;;;;;5060701;28;20029;-92
2022/11/04 06:13:06;;;;;;;0.00;0.00;;;9.00;99.90;;;;;;5057341;28;20052;-92
2022/11/04 06:15:42;;;;;;;;;;;;;;;;;;;;;
2022/11/04 06:18:42;;;;;;;0.05;0.05;;;8.60;99.90;;;;;;5075430;28;20056;-92
2022/11/04 06:21:42;;;;;;;;;;;;;;;;;;;;;
2022/11/04 06:24:13;;;;;;;0.00;0.00;;;8.40;99.90;;;;;;5093792;28;20089;-92
2022/11/04 06:27:01;;;;;;;0.00;0.00;;;8.40;99.90;;;;;;5074668;28;20037;-93
2022/11/04 06:29:40;;;;;;;;;;;;;;;;;;;;;
2022/11/04 06:32:23;;;;;;;0.00;0.00;;;8.80;99.90;;;;;;5076462;28;20025;-93
2022/11/04 06:37:37;;;;;;;2.45;1.55;;;9.20;99.90;;;;;;5076107;28;20123;-93
2022/11/04 06:40:11;;;;;;;0.00;0.00;;;9.30;99.90;;;;;;5059130;28;20052;-93
2022/11/04 06:42:37;;;;;;;0.00;0.00;;;8.20;99.90;;;;;;5072881;28;20083;-93
2022/11/04 06:45:08;;;;;;;0.00;0.00;;;9.50;99.90;;;;;;5054747;28;20044;-92
2022/11/04 06:47:34;;;;;;;0.00;0.00;;;8.30;99.90;;;;;;5070190;28;20055;-93
2022/11/04 06:50:03;;;;;;;0.00;0.00;;;8.40;99.90;;;;;;5053754;28;20055;-92
2022/11/04 06:52:35;;;;;;;0.00;0.00;;;8.30;99.90;;;;;;5071767;28;20032;-92
2022/11/04 06:55:01;;;;;;;0.00;0.00;;;7.60;99.90;;;;;;5053621;28;20092;-92
2022/11/04 06:57:29;;;;;;;0.00;0.00;;;8.30;99.90;;;;;;5070648;28;20049;-92
2022/11/04 06:59:55;;;;;;;0.00;0.00;;;8.50;99.90;;;;;;5089008;28;20040;-92
2022/11/04 07:02:21;;;;;;;0.00;0.00;;;8.40;99.90;;;;;;5054295;28;20044;-92
2022/11/04 07:04:48;;;;;;;0.00;0.00;;;9.40;99.90;;;;;;5052342;28;20072;-92
2022/11/04 07:07:17;;;;;;;0.03;0.03;;;8.30;99.90;;;;;;5070289;28;20087;-93
2022/11/04 07:09:43;;;;;;;0.45;0.20;;;9.20;99.90;;;;;;5054268;28;20048;-93
2022/11/04 07:12:12;;;;;;;0.00;0.00;;;9.50;99.90;;;;;;5072750;28;20032;-93
2022/11/04 07:14:39;;;;;;;0.00;0.00;;;8.20;99.90;;;;;;5056913;28;20383;-92
2022/11/04 07:17:13;;;;;;;0.00;0.00;;;8.50;99.90;;;;;;5056028;28;20529;-91
2022/11/04 07:19:59;;;;;;;0.00;0.00;;;8.80;99.90;;;;;;5070853;28;20032;-93
2022/11/04 07:22:47;;;;;;;0.20;0.10;;;8.40;99.90;;;;;;5071475;28;20029;-93
2022/11/04 07:25:15;;;;;;;0.00;0.00;;;7.40;99.90;;;;;;5054453;28;20036;-93
2022/11/04 07:27:41;;;;;;;0.00;0.00;;;8.10;99.90;;;;;;5070700;28;20048;-93
2022/11/04 07:33:36;;;;;;;0.00;0.00;;;8.10;99.90;;;;;;5075658;28;20090;-93
2022/11/04 07:36:16;;;;;;;;;;;9.20;99.90;;;;;;5054205;28;20047;-93
2022/11/04 07:39:06;;;;;;;;;;;;;;;;;;;;;
2022/11/04 07:41:49;;;;;;;0.00;0.00;;;8.60;99.90;;;;;;5067028;28;20042;-93
2022/11/04 07:44:22;;;;;;;0.00;0.00;;;9.30;99.90;;;;;;5064481;28;20049;-93
2022/11/04 07:47:11;;;;;;;0.20;0.20;;;8.90;99.90;;;;;;5066646;28;20817;-93
2022/11/04 07:49:47;;;;;;;;;;;;;;;;;;;;;
2022/11/04 07:52:28;;;;;;;;;;;;;;;;;;;;;
2022/11/04 07:55:18;;;;;;;0.00;0.00;;;8.20;99.90;;;;;;5064678;28;20052;-93
2022/11/04 07:57:53;;;;;;;0.00;0.00;;;9.00;99.90;;;;;;5050375;28;20056;-93
2022/11/04 08:00:41;;;;;;;;;;;;;;;;;;;;;
2022/11/04 08:07:10;;;;;;;;;;;;;;;;;;;;;
2022/11/04 08:09:56;;;;;;;0.00;0.00;;;9.20;99.90;;;;;;5070044;28;20045;-93
2022/11/04 08:16:19;;;;;;;;;;;;;;;;;;;;;
2022/11/04 08:32:46;;;;;;;1.98;0.22;;;8.80;99.90;;;;;;5082876;28;20071;-93
2022/11/04 08:48:55;;;;;;;;;;;;;;;;;;;;;
2022/11/04 08:51:56;;;;;;;;;;;;;;;;;;;;;
2022/11/04 08:54:44;;;;;;;;;;;;;;;;;;;;;
2022/11/04 08:58:00;;;;;;;;;;;;;;;;;;;;;
2022/11/04 09:01:25;;;;;;;;;;;;;;;;;;;;;
2022/11/04 09:07:10;;;;;;;0.00;0.00;;;9.00;99.90;;;;;;5082284;28;20135;-93
2022/11/04 09:09:51;;;;;;;0.00;0.00;;;9.30;99.90;;;;;;5055969;28;20104;-94
2022/11/04 09:12:50;;;;;;;;;;;;;;;;;;;;;
2022/11/04 09:16:09;;;;;;;;;;;;;;;;;;;;;
2022/11/04 09:18:35;;;;;;;0.00;0.00;;;8.20;99.90;;;;;;5076076;22;20057;-75
2022/11/04 09:21:02;;;;;;;0.00;0.00;;;9.30;99.90;;;;;;5066224;28;20461;-76
2022/11/04 09:23:28;;;;;;;0.00;0.00;;;9.40;99.90;;;;;;5067913;28;20406;-75
2022/11/04 09:25:57;;;;;;;0.00;0.00;;;9.40;99.90;;;;;;5065873;28;20048;-75
2022/11/04 09:28:24;;;;;;;0.00;0.00;;;9.70;99.90;;;;;;5068782;28;20053;-77
2022/11/04 09:30:49;;;;;;;4.03;0.32;;;9.50;99.90;;;;;;5070092;28;20128;-75
2022/11/04 09:33:16;;;;;;;0.00;0.00;;;9.60;99.90;;;;;;5066740;28;20124;-75
2022/11/04 09:35:41;;;;;;;0.08;0.08;;;9.50;99.90;;;;;;5064652;28;20049;-77
2022/11/04 09:38:07;;;;;;;0.00;0.00;;;9.60;99.90;;;;;;5068763;28;20146;-76
2022/11/04 09:40:35;;;;;;;0.00;0.00;;;9.60;99.90;;;;;;5066716;28;20483;-76
2022/11/04 09:43:10;;;;;;;0.03;0.03;;;9.70;99.90;;;;;;5066281;28;20049;-75
2022/11/04 09:45:39;;;;;;;0.00;0.00;;;9.70;99.90;;;;;;5065277;28;20568;-75
2022/11/04 09:48:10;;;;;;;0.00;0.00;;;9.80;99.90;;;;;;5064377;28;20114;-74
2022/11/04 09:50:58;;;;;;;0.22;0.22;;;9.80;99.90;;;;;;5065494;28;20052;-77
2022/11/04 09:53:46;;;;;;;0.45;0.38;;;9.90;99.90;;;;;;5067792;28;20123;-75
2022/11/04 09:56:24;;;;;;;0.00;0.00;;;10.00;99.90;;;;;;5064795;28;20056;-75
2022/11/04 09:58:50;;;;;;;0.00;0.00;;;10.10;99.90;;;;;;5068479;28;20392;-76
2022/11/04 10:01:26;;;;;;;0.03;0.03;;;10.10;99.90;;;;;;5070550;28;20048;-77
2022/11/04 10:04:03;;;;;;;0.35;0.10;;;10.20;99.90;;;;;;5068412;28;20063;-76
2022/11/04 10:06:50;;;;;;;0.10;0.10;;;10.20;99.90;;;;;;5068686;28;20075;-76
2022/11/04 10:09:51;;;;;;;0.00;0.00;;;10.20;99.90;;;;;;5072425;28;20047;-77
2022/11/04 10:12:45;;;;;;;0.20;0.20;;;10.30;99.90;;;;;;5073798;28;20045;-76
2022/11/04 10:15:23;;;;;;;0.00;0.00;;;10.40;99.90;;;;;;5072643;28;20029;-75
2022/11/04 10:18:14;;;;;;;0.00;0.00;;;10.50;99.90;;;;;;5070654;28;20060;-76
2022/11/04 10:20:56;;;;;;;0.00;0.00;;;10.50;99.90;;;;;;5072304;28;20118;-76
2022/11/04 10:23:56;;;;;;;0.00;0.00;;;10.50;99.90;;;;;;5074912;28;20427;-76
2022/11/04 10:26:27;;;;;;;0.00;0.00;;;10.60;99.90;;;;;;5073729;28;20045;-77
2022/11/04 10:29:03;;;;;;;0.10;0.08;;;10.50;99.90;;;;;;5075173;28;20408;-78
2022/11/04 10:31:29;;;;;;;0.00;0.00;;;10.50;99.90;;;;;;5078987;28;20047;-76
2022/11/04 10:34:07;;;;;;;0.00;0.00;;;10.50;99.90;;;;;;5079119;28;20052;-77
2022/11/04 10:36:34;;;;;;;0.00;0.00;;;10.50;99.90;;;;;;5058576;28;20044;-76
2022/11/04 10:39:03;;;;;;;0.00;0.00;;;10.60;99.90;;;;;;5076698;28;20115;-77
2022/11/04 10:41:32;;;;;;;0.13;0.10;;;10.80;99.90;;;;;;5074195;28;20564;-76
2022/11/04 10:44:05;;;;;;;0.00;0.00;;;10.90;99.90;;;;;;5073803;28;20059;-77
2022/11/04 10:46:36;;;;;;;0.43;0.35;;;11.10;99.90;;;;;;5072933;28;20048;-77
2022/11/04 10:49:17;;;;;;;0.00;0.00;;;11.10;99.90;;;;;;5074344;28;20058;-75
2022/11/04 10:51:44;;;;;;;0.00;0.00;;;11.00;99.90;;;;;;5080055;28;20130;-77
2022/11/04 10:54:10;;;;;;;0.00;0.00;;;11.10;99.90;;;;;;5078537;28;20189;-76
2022/11/04 10:56:53;;;;;;;0.08;0.00;;;11.30;99.90;;;;;;5077942;28;20056;-76
2022/11/04 10:59:18;;;;;;;0.00;0.00;;;11.70;99.90;;;;;;5073206;28;20055;-77
2022/11/04 11:01:52;;;;;;;0.00;0.00;;;11.90;99.90;;;;;;5073877;28;20411;-75
2022/11/04 11:04:28;;;;;;;0.00;0.00;;;12.00;99.90;;;;;;5072921;28;20044;-75
2022/11/04 11:06:56;;;;;;;0.00;0.00;;;12.10;99.90;;;;;;5075781;28;20048;-77
2022/11/04 11:09:28;;;;;;;0.00;0.00;;;12.00;99.90;;;;;;5076345;28;20479;-76
2022/11/04 11:12:00;;;;;;;0.10;0.10;;;11.90;99.90;;;;;;5071506;28;20041;-76
2022/11/04 11:14:29;;;;;;;4.00;1.65;;;11.90;99.90;;;;;;5074598;28;20056;-76
2022/11/04 11:16:56;;;;;;;0.00;0.00;;;11.80;99.90;;;;;;5073419;28;20116;-77
2022/11/04 11:19:25;;;;;;;0.00;0.00;;;11.70;99.90;;;;;;5075561;28;20088;-76
2022/11/04 11:21:53;;;;;;;0.00;0.00;;;11.80;99.90;;;;;;5076930;28;20125;-75
2022/11/04 11:24:26;;;;;;;0.00;0.00;;;12.00;99.90;;;;;;5074655;28;20078;-77
2022/11/04 11:27:11;;;;;;;0.00;0.00;;;12.20;99.90;;;;;;5075232;28;20063;-76
2022/11/04 11:29:41;;;;;;;0.95;0.80;;;12.30;99.90;;;;;;5071464;28;20063;-75
2022/11/04 11:32:30;;;;;;;0.00;0.00;;;12.40;1.00;;;;;;5070771;28;20055;-76
2022/11/04 11:35:00;;;;;;;2.00;0.22;;;12.70;78.70;;;;;;5071126;28;20052;-76
2022/11/04 11:37:31;;;;;;;0.80;0.30;;;13.10;99.90;;;;;;5075605;28;20060;-76
2022/11/04 11:40:03;;;;;;;0.00;0.00;;;13.50;99.90;;;;;;5077339;28;20044;-75
2022/11/04 11:42:29;;;;;;;0.03;0.03;;;13.70;99.90;;;;;;5076835;28;20041;-77
2022/11/04 11:44:58;;;;;;;1.08;0.65;;;13.90;99.90;;;;;;5080149;28;20067;-76
2022/11/04 11:47:24;;;;;;;0.47;0.20;;;14.10;99.90;;;;;;5072770;28;20036;-77
2022/11/04 11:50:15;;;;;;;0.00;0.00;;;14.30;99.90;;;;;;5070527;28;20147;-76
2022/11/04 11:52:43;;;;;;;0.47;0.40;;;14.60;1.00;;;;;;5059616;28;20488;-76
2022/11/04 11:55:31;;;;;;;0.20;0.20;;;14.80;64.80;;;;;;5068741;28;20480;-74
2022/11/04 11:58:11;;;;;;;0.00;0.00;;;14.80;44.80;;;;;;5071204;28;20499;-76
2022/11/04 12:00:49;;;;;;;0.25;0.25;;;14.90;99.90;;;;;;5072521;28;20485;-75
2022/11/04 12:03:29;;;;;;;0.00;0.00;;;14.80;99.90;;;;;;5071105;28;20075;-77
2022/11/04 12:06:33;;;;;;;0.00;0.00;;;14.60;1.00;;;;;;5051174;28;20049;-76
2022/11/04 12:09:22;;;;;;;0.98;0.20;;;14.30;99.90;;;;;;5053535;28;20057;-76
2022/11/04 12:12:09;;;;;;;0.00;0.00;;;13.90;67.70;;;;;;5053855;28;20045;-76
2022/11/04 12:14:56;;;;;;;0.00;0.00;;;13.50;99.90;;;;;;5050604;28;20056;-76
2022/11/04 12:17:40;;;;;;;0.45;0.38;;;13.20;1.00;;;;;;5050238;28;20564;-76
2022/11/04 12:20:14;;;;;;;0.00;0.00;;;13.00;99.90;;;;;;5050375;28;20059;-75
2022/11/04 12:23:09;;;;;;;0.00;0.00;;;12.80;99.90;;;;;;5050323;28;20045;-75
2022/11/04 12:25:46;;;;;;;0.00;0.00;;;12.60;99.90;;;;;;5049134;28;20055;-76
2022/11/04 12:28:39;;;;;;;0.00;0.00;;;12.40;1.00;;;;;;5049891;28;20049;-76
2022/11/04 12:31:19;;;;;;;0.00;0.00;;;12.30;1.00;;;;;;5050081;28;20045;-75
2022/11/04 12:33:53;;;;;;;0.00;0.00;;;12.20;99.90;;;;;;5048453;28;20053;-76
2022/11/04 12:36:46;;;;;;;0.00;0.00;;;12.20;1.00;;;;;;5051019;28;20052;-74
2022/11/04 12:39:44;;;;;;;0.00;0.00;;;12.20;1.00;;;;;;5065442;28;20040;-77
2022/11/04 12:42:24;;;;;;;0.43;0.43;;;12.10;99.90;;;;;;5057613;28;20606;-76
2022/11/04 12:45:16;;;;;;;0.00;0.00;;;12.10;99.90;;;;;;5071084;28;20490;-75
2022/11/04 12:47:46;;;;;;;0.20;0.10;;;12.20;99.90;;;;;;5070366;28;20052;-74
2022/11/04 12:50:30;;;;;;;0.00;0.00;;;12.30;99.90;;;;;;5071119;28;20036;-75
2022/11/04 12:53:05;;;;;;;0.00;0.00;;;12.70;99.90;;;;;;5070479;28;20052;-76
2022/11/04 12:56:01;;;;;;;0.00;0.00;;;13.40;1.00;;;;;;5071989;28;20080;-75
2022/11/04 12:58:40;;;;;;;1.17;0.52;;;14.00;99.90;;;;;;5071193;28;20053;-74
2022/11/04 13:01:14;;;;;;;0.90;0.70;;;14.40;1.00;;;;;;5071694;28;20064;-75
2022/11/04 13:04:05;;;;;;;0.00;0.00;;;14.50;99.90;;;;;;5071337;28;20055;-75
2022/11/04 13:06:40;;;;;;;0.00;0.00;;;14.50;99.90;;;;;;5072482;28;20433;-75
2022/11/04 13:09:13;;;;;;;0.00;0.00;;;14.10;94.90;;;;;;5072513;28;20546;-75
2022/11/04 13:11:49;;;;;;;0.00;0.00;;;13.60;99.90;;;;;;5072134;28;20046;-74
2022/11/04 13:14:22;;;;;;;0.10;0.10;;;13.20;99.90;;;;;;5070233;28;20119;-75
2022/11/04 13:16:51;;;;;;;0.00;0.00;;;12.80;99.90;;;;;;5069873;28;20055;-76
2022/11/04 13:19:23;;;;;;;0.00;0.00;;;12.40;99.90;;;;;;5070229;28;20498;-75
2022/11/04 13:21:49;;;;;;;0.00;0.00;;;12.10;99.90;;;;;;5072006;28;20080;-75
2022/11/04 13:24:31;;;;;;;0.00;0.00;;;12.80;1.00;;;;;;5072079;28;20056;-74
2022/11/04 13:27:12;;;;;;;0.00;0.00;;;11.70;99.90;;;;;;5072576;28;20574;-75
2022/11/04 13:29:39;;;;;;;0.10;0.10;;;11.60;1.00;;;;;;5053391;28;20048;-76
2022/11/04 13:32:27;;;;;;;0.13;0.00;;;11.50;99.90;;;;;;5072590;28;20044;-74
2022/11/04 13:35:14;;;;;;;0.10;0.10;;;11.40;63.30;;;;;;5074045;28;20056;-74
2022/11/04 13:37:53;;;;;;;;;;;11.30;99.90;;;;;;5071626;28;20119;-76
2022/11/04 13:40:25;;;;;;;0.00;0.00;;;11.20;99.90;;;;;;5066916;28;20485;-75
2022/11/04 13:46:01;;;;;;;0.00;0.00;;;12.00;99.90;;;;;;5069811;28;20091;-75
2022/11/04 13:48:30;;;;;;;0.10;0.08;;;12.90;58.60;;;;;;5071199;28;20033;-75
2022/11/04 13:51:03;;;;;;;0.00;0.00;;;13.60;99.90;;;;;;5072060;28;20080;-74
2022/11/04 13:53:50;;;;;;;0.00;0.00;;;14.00;1.00;;;;;;5070046;28;20083;-76
2022/11/04 13:56:32;;;;;;;0.00;0.00;;;14.40;99.90;;;;;;5067156;28;20100;-74
2022/11/04 13:59:27;;;;;;;0.10;0.10;;;14.70;9.10;;;;;;5071184;28;20094;-74
2022/11/04 14:02:17;;;;;;;0.50;0.45;;;15.00;99.90;;;;;;5065877;28;20043;-75
2022/11/04 14:04:44;;;;;;;0.65;0.32;;;15.30;99.90;;;;;;5071445;28;20503;-75
2022/11/04 14:07:16;;;;;;;0.00;0.00;;;15.50;99.90;;;;;;5070051;28;20151;-76
2022/11/04 14:09:42;;;;;;;0.00;0.00;;;15.40;1.00;;;;;;5073151;28;20033;-76
2022/11/04 14:12:07;;;;;;;0.00;0.00;;;15.60;99.90;;;;;;5074019;28;20056;-75
2022/11/04 14:14:34;;;;;;;0.00;0.00;;;15.80;1.00;;;;;;5072901;28;20407;-76
2022/11/04 14:17:03;;;;;;;0.13;0.13;;;16.00;99.90;;;;;;5071557;28;20112;-75
2022/11/04 14:19:56;;;;;;;0.08;0.08;;;16.00;99.90;;;;;;5074273;28;20051;-75
2022/11/04 14:22:31;;;;;;;0.30;0.30;;;16.30;1.00;;;;;;5073952;28;20444;-74
2022/11/04 14:24:59;;;;;;;0.00;0.00;;;15.90;1.00;;;;;;5075048;28;20062;-76
2022/11/04 14:27:39;;;;;;;1.30;0.52;;;15.80;4.00;;;;;;5055514;28;20058;-74
2022/11/04 14:30:22;;;;;;;0.30;0.30;;;15.80;99.90;;;;;;5074216;28;20060;-74
2022/11/04 14:32:58;;;;;;;5.85;0.93;;;15.60;82.80;;;;;;5075738;28;20048;-75
2022/11/04 14:35:24;;;;;;;0.60;0.30;;;15.60;99.90;;;;;;5074004;28;20070;-75
2022/11/04 14:37:52;;;;;;;1.02;0.20;;;15.50;99.90;;;;;;5073587;28;20100;-76
2022/11/04 14:40:45;;;;;;;0.32;0.30;;;15.60;99.90;;;;;;5074973;28;20051;-75
2022/11/04 14:43:31;;;;;;;0.17;0.10;;;15.90;99.90;;;;;;5074184;28;20044;-76
2022/11/04 14:46:00;;;;;;;0.38;0.22;;;16.10;99.90;;;;;;5075058;28;20483;-76
2022/11/04 14:48:27;;;;;;;1.45;0.70;;;16.00;44.20;;;;;;5074925;28;20052;-77
2022/11/04 14:50:54;;;;;;;0.00;0.00;;;15.80;1.00;;;;;;5074081;28;20438;-76
2022/11/04 14:53:36;;;;;;;0.00;0.00;;;15.60;1.00;;;;;;5076590;28;20064;-77
2022/11/04 14:56:19;;;;;;;3.10;0.50;;;15.20;1.90;;;;;;5073464;28;20052;-74
2022/11/04 14:59:05;;;;;;;0.00;0.00;;;14.80;28.50;;;;;;5074968;28;20059;-76
2022/11/04 15:01:32;;;;;;;;;;;14.10;99.90;;;;;;5076189;28;20044;-76
2022/11/04 15:04:08;;;;;;;0.00;0.00;;;13.60;99.90;;;;;;5078366;28;19924;-76
2022/11/04 15:06:34;;;;;;;0.00;0.00;;;13.30;1.00;;;;;;5077325;28;20055;-75
2022/11/04 15:08:59;;;;;;;1.27;0.55;;;13.00;99.90;;;;;;5074301;28;20274;-75
2022/11/04 15:14:13;;;;;;;;;;;12.50;1.00;;;;;;5075955;28;20048;-74
2022/11/04 15:16:39;;;;;;;0.00;0.00;;;12.20;99.90;;;;;;5074940;28;19924;-75
2022/11/04 15:19:07;;;;;;;0.00;0.00;;;12.00;99.90;;;;;;5073766;28;20447;-74
2022/11/04 15:21:38;;;;;;;0.65;0.30;;;11.80;99.90;;;;;;5076527;28;20041;-75
2022/11/04 15:24:05;;;;;;;0.00;0.00;;;11.70;99.90;;;;;;5075512;28;20090;-75
2022/11/04 15:26:33;;;;;;;0.08;0.08;;;11.50;77.70;;;;;;5073178;28;20091;-76
2022/11/04 15:29:06;;;;;;;0.22;0.17;;;11.40;1.00;;;;;;5071942;28;20049;-74
2022/11/04 15:31:33;;;;;;;0.00;0.00;;;11.20;1.00;;;;;;5072819;28;20040;-76
2022/11/04 15:34:05;;;;;;;0.00;0.00;;;11.00;99.90;;;;;;5072187;28;20040;-73
2022/11/04 15:36:41;;;;;;;0.00;0.00;;;10.70;99.90;;;;;;5071989;28;20135;-73
2022/11/04 15:39:13;;;;;;;0.00;0.00;;;10.50;99.90;;;;;;5074656;28;20483;-74